createdAt,value
2018-12-04T00:01:37.979Z,97525.72
2018-12-04T00:04:42.042Z,97544.64
2018-12-04T00:07:46.115Z,97548.41
2018-12-04T00:10:50.174Z,97547.78
2018-12-04T00:13:54.244Z,97558.30
2018-12-04T00:16:58.301Z,97562.13
2018-12-04T00:20:02.397Z,97561.08
2018-12-04T00:23:06.473Z,97555.09
2018-12-04T00:26:10.528Z,97557.56
2018-12-04T00:29:14.614Z,97557.42
2018-12-04T00:32:18.683Z,97547.67
2018-12-04T00:36:06.503Z,97566.86
2018-12-04T00:39:10.671Z,97571.26
2018-12-04T00:42:14.738Z,97570.48
2018-12-04T00:45:18.903Z,97551.49
2018-12-04T00:48:22.996Z,97549.78
2018-12-04T00:51:27.084Z,97536.89
2018-12-04T00:54:31.246Z,97538.78
2018-12-04T00:57:35.373Z,97556.05
2018-12-04T01:00:39.502Z,97571.33
2018-12-04T01:03:43.589Z,97584.02
2018-12-04T01:06:47.710Z,97592.52
2018-12-04T01:09:51.834Z,97595.00
2018-12-04T01:12:55.926Z,97604.53
2018-12-04T01:16:00.034Z,97609.50
2018-12-04T01:19:04.167Z,97618.70
2018-12-04T01:22:08.283Z,97621.27
2018-12-04T01:25:12.359Z,97621.91
2018-12-04T01:28:16.524Z,97624.69
2018-12-04T01:31:20.640Z,97632.92
2018-12-04T01:34:24.862Z,97634.89
2018-12-04T01:37:28.945Z,97637.06
2018-12-04T01:40:33.095Z,97626.32
2018-12-04T01:43:37.246Z,97638.03
2018-12-04T01:46:41.436Z,97638.91
2018-12-04T01:49:45.522Z,97633.25
2018-12-04T01:52:49.621Z,97643.66
2018-12-04T01:55:53.777Z,97641.71
2018-12-04T01:58:57.866Z,97636.32
2018-12-04T02:02:01.998Z,97645.17
2018-12-04T02:05:06.168Z,97649.48
2018-12-04T02:08:10.232Z,97646.23
2018-12-04T02:11:14.313Z,97656.72
2018-12-04T02:14:18.465Z,97662.27
2018-12-04T02:17:22.698Z,97659.16
2018-12-04T02:20:26.902Z,97658.25
2018-12-04T02:23:31.019Z,97659.47
2018-12-04T02:26:35.115Z,97658.41
2018-12-04T02:29:39.347Z,97656.34
2018-12-04T02:32:43.476Z,97657.20
2018-12-04T02:35:47.525Z,97660.37
2018-12-04T02:38:51.606Z,97657.50
2018-12-04T02:41:55.759Z,97659.88
2018-12-04T02:44:59.826Z,97667.41
2018-12-04T02:48:04.054Z,97662.27
2018-12-04T02:51:08.135Z,97669.03
2018-12-04T02:54:12.286Z,97680.86
2018-12-04T02:57:16.373Z,97686.94
2018-12-04T03:00:20.519Z,97686.63
2018-12-04T03:03:24.615Z,97692.48
2018-12-04T03:06:28.691Z,97701.33
2018-12-04T03:09:32.833Z,97700.85
2018-12-04T03:12:36.930Z,97701.22
2018-12-04T03:15:41.050Z,97703.31
2018-12-04T03:18:45.202Z,97700.56
2018-12-04T03:21:49.314Z,97703.67
2018-12-04T03:24:53.642Z,97703.30
2018-12-04T03:27:57.787Z,97711.38
2018-12-04T03:31:03.923Z,97721.34
2018-12-04T03:34:08.005Z,97718.95
2018-12-04T03:37:12.091Z,97728.60
2018-12-04T03:40:16.180Z,97741.34
2018-12-04T03:43:20.556Z,97742.17
2018-12-04T03:46:24.644Z,97739.89
2018-12-04T03:49:28.829Z,97747.57
2018-12-04T03:52:33.036Z,97754.49
2018-12-04T03:55:37.117Z,97765.95
2018-12-04T03:58:41.249Z,97775.36
2018-12-04T04:01:45.389Z,97782.12
2018-12-04T04:04:49.512Z,97789.09
2018-12-04T04:07:53.538Z,97784.25
2018-12-04T04:10:57.681Z,97784.73
2018-12-04T04:14:01.818Z,97785.42
2018-12-04T04:17:05.910Z,97796.40
2018-12-04T04:20:10.041Z,97805.22
2018-12-04T04:23:14.130Z,97807.89
2018-12-04T04:26:18.287Z,97819.02
2018-12-04T04:29:22.435Z,97813.27
2018-12-04T04:32:26.522Z,97828.25
2018-12-04T04:35:37.229Z,97820.10
2018-12-04T04:38:41.321Z,97839.78
2018-12-04T04:41:45.452Z,97839.52
2018-12-04T04:44:49.574Z,97835.41
2018-12-04T04:47:53.696Z,97833.41
2018-12-04T04:50:57.814Z,97840.08
2018-12-04T04:54:01.918Z,97849.68
2018-12-04T04:57:06.067Z,97852.73
2018-12-04T05:00:10.250Z,97857.41
2018-12-04T05:03:14.377Z,97856.30
2018-12-04T05:06:18.480Z,97855.86
2018-12-04T05:09:22.623Z,97862.21
2018-12-04T05:12:26.707Z,97867.72
2018-12-04T05:15:30.783Z,97872.30
2018-12-04T05:18:34.955Z,97868.92
2018-12-04T05:21:39.029Z,97881.87
2018-12-04T05:24:43.096Z,97885.70
2018-12-04T05:27:47.201Z,97897.29
2018-12-04T05:30:51.286Z,97905.63
2018-12-04T05:33:55.369Z,97913.02
2018-12-04T05:36:59.440Z,97928.45
2018-12-04T05:40:05.399Z,97932.34
2018-12-04T05:43:09.530Z,97934.20
2018-12-04T05:46:13.665Z,97942.69
2018-12-04T05:49:17.851Z,97943.25
2018-12-04T05:52:22.684Z,97946.13
2018-12-04T05:55:26.726Z,97952.47
2018-12-04T05:58:30.814Z,97956.76
2018-12-04T06:01:34.901Z,97958.72
2018-12-04T06:04:39.691Z,97961.19
2018-12-04T06:07:43.769Z,97967.95
2018-12-04T06:10:48.792Z,97971.53
2018-12-04T06:13:52.894Z,97978.08
2018-12-04T06:16:57.059Z,97978.48
2018-12-04T06:20:01.358Z,97981.89
2018-12-04T06:23:05.509Z,97991.08
2018-12-04T06:26:09.605Z,97985.84
2018-12-04T06:29:13.673Z,97998.12
2018-12-04T06:32:17.827Z,97996.11
2018-12-04T06:35:23.111Z,98000.35
2018-12-04T06:38:27.301Z,98007.33
2018-12-04T06:41:31.379Z,98011.61
2018-12-04T06:44:35.514Z,98020.95
2018-12-04T06:47:39.737Z,98022.66
2018-12-04T06:50:43.818Z,98031.96
2018-12-04T06:53:47.964Z,98036.98
2018-12-04T06:56:52.085Z,98047.95
2018-12-04T06:59:56.190Z,98058.38
2018-12-04T07:03:00.285Z,98061.97
2018-12-04T07:06:04.530Z,98066.22
2018-12-04T07:09:08.750Z,98072.86
2018-12-04T07:12:12.866Z,98081.52
2018-12-04T07:15:17.089Z,98082.80
2018-12-04T07:18:21.314Z,98084.07
2018-12-04T07:21:25.384Z,98101.59
2018-12-04T07:24:29.538Z,98109.93
2018-12-04T07:27:33.602Z,98120.92
2018-12-04T07:30:37.774Z,98122.37
2018-12-04T07:33:41.888Z,98142.01
2018-12-04T07:36:46.024Z,98138.86
2018-12-04T07:39:50.139Z,98144.80
2018-12-04T07:42:54.289Z,98151.09
2018-12-04T07:45:58.454Z,98160.96
2018-12-04T07:49:02.537Z,98168.80
2018-12-04T07:52:06.657Z,98176.39
2018-12-04T07:55:10.801Z,98177.20
2018-12-04T07:58:15.772Z,98192.42
2018-12-04T08:01:20.152Z,98199.41
2018-12-04T08:04:24.258Z,98194.84
2018-12-04T08:07:28.390Z,98187.87
2018-12-04T08:10:32.535Z,98209.13
2018-12-04T08:13:36.606Z,98207.25
2018-12-04T08:16:40.742Z,98211.36
2018-12-04T08:19:44.850Z,98215.91
2018-12-04T08:22:49.014Z,98230.11
2018-12-04T08:25:53.190Z,98227.27
2018-12-04T08:28:57.276Z,98230.95
2018-12-04T08:32:01.366Z,98237.22
2018-12-04T08:35:06.877Z,98239.87
2018-12-04T08:38:11.088Z,98247.92
2018-12-04T08:41:15.171Z,98257.51
2018-12-04T08:44:19.260Z,98268.48
2018-12-04T08:47:23.345Z,98276.23
2018-12-04T08:50:27.447Z,98275.45
2018-12-04T08:53:31.557Z,98280.59
2018-12-04T08:56:35.638Z,98288.73
2018-12-04T08:59:39.727Z,98291.81
2018-12-04T09:02:43.917Z,98310.88
2018-12-04T09:05:47.970Z,98315.08
2018-12-04T09:08:52.145Z,98329.97
2018-12-04T09:15:09.873Z,98340.88
2018-12-04T09:18:15.075Z,98357.14
2018-12-04T09:21:19.240Z,98359.79
2018-12-04T09:24:23.379Z,98371.83
2018-12-04T09:27:27.560Z,98378.31
2018-12-04T09:30:31.809Z,98370.85
2018-12-04T09:33:36.922Z,98373.61
2018-12-04T09:36:41.055Z,98390.61
2018-12-04T09:39:45.149Z,98380.06
2018-12-04T09:42:49.205Z,98386.66
2018-12-04T09:45:53.308Z,98387.27
2018-12-04T09:48:57.418Z,98380.13
2018-12-04T09:52:01.550Z,98391.73
2018-12-04T09:55:06.822Z,98393.42
2018-12-04T09:58:10.885Z,98403.14
2018-12-04T10:01:15.029Z,98397.49
2018-12-04T10:04:19.116Z,98401.77
2018-12-04T10:07:23.186Z,98408.94
2018-12-04T10:10:27.268Z,98415.92
2018-12-04T10:13:31.358Z,98415.41
2018-12-04T10:16:35.442Z,98421.38
2018-12-04T10:19:39.504Z,98423.23
2018-12-04T10:22:43.593Z,98421.11
2018-12-04T10:25:50.336Z,98423.13
2018-12-04T10:28:54.426Z,98419.98
2018-12-04T10:31:58.564Z,98418.64
2018-12-04T10:35:02.849Z,98417.88
2018-12-04T10:38:06.934Z,98416.44
2018-12-04T10:41:11.070Z,98419.27
2018-12-04T10:44:15.313Z,98429.58
2018-12-04T10:47:19.404Z,98426.14
2018-12-04T10:50:23.487Z,98434.48
2018-12-04T10:53:27.606Z,98440.63
2018-12-04T10:56:31.685Z,98449.50
2018-12-04T10:59:35.765Z,98452.94
2018-12-04T11:02:44.433Z,98456.07
2018-12-04T11:05:48.621Z,98464.58
2018-12-04T11:08:52.705Z,98463.98
2018-12-04T11:11:56.767Z,98469.84
2018-12-04T11:15:00.959Z,98461.45
2018-12-04T11:18:05.203Z,98462.66
2018-12-04T11:21:09.286Z,98463.63
2018-12-04T11:24:13.352Z,98466.36
2018-12-04T11:27:17.425Z,98480.38
2018-12-04T11:30:21.650Z,98491.72
2018-12-04T11:33:25.743Z,98494.22
2018-12-04T11:36:29.989Z,98491.16
2018-12-04T11:39:34.058Z,98486.59
2018-12-04T11:42:38.207Z,98488.64
2018-12-04T11:45:42.341Z,98483.38
2018-12-04T11:48:46.418Z,98500.13
2018-12-04T11:51:50.493Z,98503.51
2018-12-04T11:54:54.567Z,98503.83
2018-12-04T11:57:58.654Z,98505.20
2018-12-04T12:01:03.190Z,98508.47
2018-12-04T12:04:08.257Z,98519.77
2018-12-04T12:07:13.417Z,98524.05
2018-12-04T12:10:17.485Z,98526.94
2018-12-04T12:13:21.569Z,98525.77
2018-12-04T12:16:25.629Z,98525.16
2018-12-04T12:19:29.717Z,98537.66
2018-12-04T12:22:33.792Z,98539.52
2018-12-04T12:25:37.867Z,98532.66
2018-12-04T12:28:41.939Z,98548.38
2018-12-04T12:31:46.013Z,98555.23
2018-12-04T12:34:50.138Z,98554.42
2018-12-04T12:37:54.233Z,98558.72
2018-12-04T12:40:58.301Z,98555.64
2018-12-04T12:44:02.458Z,98564.05
2018-12-04T12:47:06.594Z,98564.64
2018-12-04T12:50:10.697Z,98568.06
2018-12-04T12:53:14.770Z,98570.63
2018-12-04T12:56:18.939Z,98563.74
2018-12-04T12:59:23.018Z,98569.31
2018-12-04T13:02:27.089Z,98573.50
2018-12-04T13:05:31.309Z,98584.69
2018-12-04T13:08:35.413Z,98591.70
2018-12-04T13:11:39.638Z,98604.90
2018-12-04T13:14:43.742Z,98602.94
2018-12-04T13:17:47.805Z,98604.13
2018-12-04T13:20:51.885Z,98601.27
2018-12-04T13:23:55.949Z,98607.55
2018-12-04T13:27:00.049Z,98615.20
2018-12-04T13:30:06.272Z,98610.42
2018-12-04T13:33:10.349Z,98607.05
2018-12-04T13:36:14.426Z,98609.91
2018-12-04T13:39:18.570Z,98609.25
2018-12-04T13:42:22.711Z,98611.70
2018-12-04T13:45:26.851Z,98624.23
2018-12-04T13:48:30.929Z,98633.30
2018-12-04T13:51:35.160Z,98641.17
2018-12-04T13:54:39.503Z,98644.91
2018-12-04T13:57:43.639Z,98650.88
2018-12-04T14:00:47.914Z,98649.89
2018-12-04T14:03:52.038Z,98639.94
2018-12-04T14:06:56.185Z,98654.14
2018-12-04T14:10:00.253Z,98660.55
2018-12-04T14:13:04.336Z,98671.02
2018-12-04T14:16:08.530Z,98677.50
2018-12-04T14:19:12.702Z,98678.67
2018-12-04T14:22:16.798Z,98683.78
2018-12-04T14:25:20.862Z,98681.23
2018-12-04T14:28:25.087Z,98682.36
2018-12-04T14:31:29.198Z,98689.34
2018-12-04T14:34:33.335Z,98693.56
2018-12-04T14:37:38.543Z,98700.73
2018-12-04T14:40:42.717Z,98708.13
2018-12-04T14:43:46.836Z,98715.56
2018-12-04T14:46:50.946Z,98715.50
2018-12-04T14:49:55.120Z,98716.59
2018-12-04T14:52:59.223Z,98725.84
2018-12-04T14:56:03.432Z,98729.37
2018-12-04T14:59:07.692Z,98738.93
2018-12-04T15:02:11.830Z,98737.53
2018-12-04T15:05:16.137Z,98740.62
2018-12-04T15:08:20.250Z,98749.97
2018-12-04T15:11:24.335Z,98752.86
2018-12-04T15:14:28.391Z,98760.65
2018-12-04T15:17:32.569Z,98764.73
2018-12-04T15:20:38.729Z,98760.56
2018-12-04T15:23:42.975Z,98763.34
2018-12-04T15:26:47.043Z,98774.98
2018-12-04T15:29:51.110Z,98779.66
2018-12-04T15:32:55.302Z,98774.22
2018-12-04T15:35:59.418Z,98777.35
2018-12-04T15:39:05.862Z,98788.45
2018-12-04T15:42:11.176Z,98793.12
2018-12-04T15:45:15.406Z,98800.25
2018-12-04T15:48:19.578Z,98802.86
2018-12-04T15:51:23.699Z,98813.81
2018-12-04T15:54:27.863Z,98816.20
2018-12-04T15:57:31.978Z,98818.66
2018-12-04T16:00:36.118Z,98826.64
2018-12-04T16:03:40.192Z,98821.09
2018-12-04T16:06:44.267Z,98827.13
2018-12-04T16:09:48.348Z,98829.80
2018-12-04T16:12:52.424Z,98838.00
2018-12-04T16:15:56.525Z,98845.04
2018-12-04T16:19:00.734Z,98844.83
2018-12-04T16:22:04.886Z,98848.80
2018-12-04T16:25:09.109Z,98860.91
2018-12-04T16:28:13.259Z,98864.33
2018-12-04T16:31:17.385Z,98862.50
2018-12-04T16:34:21.461Z,98861.34
2018-12-04T16:37:25.546Z,98867.68
2018-12-04T16:40:29.615Z,98869.86
2018-12-04T16:43:33.695Z,98866.47
2018-12-04T16:46:37.789Z,98871.66
2018-12-04T16:49:41.890Z,98888.37
2018-12-04T16:52:45.950Z,98888.95
2018-12-04T16:55:50.022Z,98884.70
2018-12-04T16:58:54.114Z,98884.52
2018-12-04T17:01:58.206Z,98883.55
2018-12-04T17:05:02.378Z,98888.02
2018-12-04T17:08:06.447Z,98900.42
2018-12-04T17:11:10.526Z,98898.68
2018-12-04T17:14:14.609Z,98902.75
2018-12-04T17:17:18.760Z,98906.92
2018-12-04T17:20:22.839Z,98910.71
2018-12-04T17:23:26.923Z,98917.24
2018-12-04T17:26:31.001Z,98929.66
2018-12-04T17:29:48.718Z,98934.71
2018-12-04T17:36:12.198Z,98933.36
2018-12-04T17:42:50.734Z,98953.52
2018-12-04T17:45:54.798Z,98950.41
2018-12-04T17:48:58.908Z,98958.75
2018-12-04T17:52:03.028Z,98956.80
2018-12-04T17:55:08.280Z,98959.45
2018-12-04T17:58:13.329Z,98959.27
2018-12-04T18:01:18.474Z,98964.86
2018-12-04T18:04:22.567Z,98963.45
2018-12-04T18:07:28.615Z,98955.25
2018-12-04T18:10:32.714Z,98959.13
2018-12-04T18:13:36.815Z,98952.56
2018-12-04T18:16:42.883Z,98947.03
2018-12-04T18:19:46.968Z,98951.07
2018-12-04T18:22:51.080Z,98950.61
2018-12-04T18:25:55.149Z,98948.38
2018-12-04T18:29:00.218Z,98968.27
2018-12-04T18:32:04.454Z,98967.69
2018-12-04T18:35:08.614Z,98976.44
2018-12-04T18:38:13.855Z,98971.52
2018-12-04T18:41:18.044Z,98971.31
2018-12-04T18:44:22.115Z,98971.63
2018-12-04T18:47:47.681Z,98977.20
2018-12-04T18:50:51.773Z,98991.12
2018-12-04T18:53:55.874Z,99001.48
2018-12-04T18:57:00.015Z,99004.35
2018-12-04T19:00:08.205Z,98997.38
2018-12-04T19:03:12.286Z,99000.09
2018-12-04T19:06:16.511Z,98991.72
2018-12-04T19:09:47.311Z,98993.72
2018-12-04T19:12:51.389Z,98989.36
2018-12-04T19:15:55.560Z,98994.80
2018-12-04T19:18:59.643Z,98984.95
2018-12-04T19:22:03.900Z,99000.92
2018-12-04T19:25:08.272Z,99000.15
2018-12-04T19:28:12.414Z,98992.72
2018-12-04T19:34:50.811Z,98986.02
2018-12-04T19:37:55.765Z,98987.41
2018-12-04T19:41:00.014Z,98994.46
2018-12-04T19:44:04.262Z,98998.20
2018-12-04T19:47:08.414Z,98991.02
2018-12-04T19:50:12.810Z,98992.26
2018-12-04T19:53:16.917Z,98997.52
2018-12-04T19:56:20.995Z,99005.66
2018-12-04T19:59:47.554Z,99005.84
2018-12-04T20:02:51.655Z,99004.45
2018-12-04T20:05:55.776Z,99010.23
2018-12-04T20:08:59.929Z,99000.92
2018-12-04T20:12:04.281Z,99010.61
2018-12-04T20:15:08.593Z,99007.94
2018-12-04T20:18:12.692Z,99019.47
2018-12-04T20:21:16.840Z,99013.09
2018-12-04T20:24:21.002Z,99011.16
2018-12-04T20:27:25.076Z,99007.83
2018-12-04T20:30:29.270Z,99013.84
2018-12-04T20:33:33.393Z,99015.58
2018-12-04T20:36:37.460Z,99015.00
2018-12-04T20:39:41.538Z,99008.67
2018-12-04T20:42:45.605Z,99018.55
2018-12-04T20:45:49.730Z,99028.23
2018-12-04T20:48:53.935Z,99037.53
2018-12-04T20:51:58.022Z,99035.56
2018-12-04T20:55:08.514Z,99039.78
2018-12-04T20:58:08.219Z,99035.52
2018-12-04T21:01:12.328Z,99053.94
2018-12-04T21:04:16.404Z,99053.73
2018-12-04T21:07:20.488Z,99056.09
2018-12-04T21:10:24.565Z,99058.44
2018-12-04T21:13:28.663Z,99061.16
2018-12-04T21:16:32.755Z,99063.47
2018-12-04T21:19:36.919Z,99062.73
2018-12-04T21:22:41.003Z,99054.02
2018-12-04T21:25:46.037Z,99059.23
2018-12-04T21:28:55.558Z,99057.66
2018-12-04T21:32:05.167Z,99050.28
2018-12-04T21:35:14.562Z,99053.02
2018-12-04T21:38:24.038Z,99048.75
2018-12-04T21:41:33.566Z,99045.48
2018-12-04T21:44:43.157Z,99060.38
2018-12-04T21:47:52.662Z,99056.52
2018-12-04T21:50:56.721Z,99063.70
2018-12-04T21:54:00.810Z,99066.62
2018-12-04T21:57:04.933Z,99068.58
2018-12-04T22:00:09.085Z,99074.36
2018-12-04T22:03:13.189Z,99078.40
2018-12-04T22:06:17.353Z,99079.73
2018-12-04T22:09:21.428Z,99078.19
2018-12-04T22:12:25.522Z,99076.42
2018-12-04T22:15:29.618Z,99071.17
2018-12-04T22:18:33.705Z,99083.83
2018-12-04T22:21:48.574Z,99077.00
2018-12-04T22:24:52.726Z,99076.16
2018-12-04T22:31:13.815Z,99085.79
2018-12-04T22:34:17.887Z,99078.24
2018-12-04T22:37:22.057Z,99078.89
2018-12-04T22:40:27.303Z,99077.03
2018-12-04T22:43:31.374Z,99085.77
2018-12-04T22:46:35.556Z,99077.34
2018-12-04T22:49:48.284Z,99077.94
2018-12-04T22:52:52.374Z,99084.75
2018-12-04T22:55:56.469Z,99094.31
2018-12-04T22:59:00.546Z,99106.77
2018-12-04T23:02:04.858Z,99105.25
2018-12-04T23:05:09.017Z,99102.70
2018-12-04T23:08:13.102Z,99093.77
2018-12-04T23:11:17.259Z,99101.50
2018-12-04T23:14:21.338Z,99108.94
2018-12-04T23:17:25.419Z,99107.18
2018-12-04T23:20:29.501Z,99100.95
2018-12-04T23:23:33.578Z,99087.19
2018-12-04T23:26:37.665Z,99088.17
2018-12-04T23:29:41.762Z,99084.86
2018-12-04T23:32:45.858Z,99077.70
2018-12-04T23:35:49.942Z,99083.53
2018-12-04T23:38:54.028Z,99077.50
2018-12-04T23:41:58.167Z,99075.92
2018-12-04T23:45:02.261Z,99073.75
2018-12-04T23:48:07.499Z,99067.73
2018-12-04T23:51:11.578Z,99059.43
2018-12-04T23:54:15.683Z,99055.20
2018-12-04T23:57:19.754Z,99049.59
